sensor_id;sensor_type;location;lat;lon;timestamp;pressure;altitude;pressure_sealevel;temperature;humidity
49949;BME280;35840;45.982;8.890;2023-11-18T00:00:55;98866.69;;;7.70;53.44
49949;BME280;35840;45.982;8.890;2023-11-18T00:03:22;98876.53;;;7.81;53.89
49949;BME280;35840;45.982;8.890;2023-11-18T00:05:49;98868.44;;;7.90;52.38
49949;BME280;35840;45.982;8.890;2023-11-18T00:08:16;98855.56;;;7.92;51.48
49949;BME280;35840;45.982;8.890;2023-11-18T00:10:42;98855.66;;;7.90;51.99
49949;BME280;35840;45.982;8.890;2023-11-18T00:13:09;98850.19;;;7.78;51.47
49949;BME280;35840;45.982;8.890;2023-11-18T00:15:36;98862.63;;;7.87;49.81
49949;BME280;35840;45.982;8.890;2023-11-18T00:18:03;98834.09;;;7.75;51.20
49949;BME280;35840;45.982;8.890;2023-11-18T00:20:30;98871.66;;;7.96;52.11
49949;BME280;35840;45.982;8.890;2023-11-18T00:22:57;98866.66;;;7.92;51.92
49949;BME280;35840;45.982;8.890;2023-11-18T00:25:24;98860.19;;;7.84;52.71
49949;BME280;35840;45.982;8.890;2023-11-18T00:27:51;98860.03;;;7.66;53.84
49949;BME280;35840;45.982;8.890;2023-11-18T00:30:18;98860.06;;;7.44;55.32
49949;BME280;35840;45.982;8.890;2023-11-18T00:32:45;98869.88;;;7.33;55.68
49949;BME280;35840;45.982;8.890;2023-11-18T00:35:12;98862.97;;;7.13;55.32
49949;BME280;35840;45.982;8.890;2023-11-18T00:37:38;98865.31;;;7.19;55.34
49949;BME280;35840;45.982;8.890;2023-11-18T00:40:08;98861.22;;;7.15;54.56
49949;BME280;35840;45.982;8.890;2023-11-18T00:42:36;98859.84;;;7.28;55.64
49949;BME280;35840;45.982;8.890;2023-11-18T00:45:03;98861.16;;;7.16;56.13
49949;BME280;35840;45.982;8.890;2023-11-18T00:47:31;98860.13;;;6.98;56.80
49949;BME280;35840;45.982;8.890;2023-11-18T00:49:57;98872.47;;;6.87;56.36
49949;BME280;35840;45.982;8.890;2023-11-18T00:52:28;98873.97;;;6.93;57.07
49949;BME280;35840;45.982;8.890;2023-11-18T00:54:55;98870.69;;;6.89;57.88
49949;BME280;35840;45.982;8.890;2023-11-18T00:57:22;98870.47;;;6.95;57.38
49949;BME280;35840;45.982;8.890;2023-11-18T00:59:48;98878.75;;;7.02;57.46
49949;BME280;35840;45.982;8.890;2023-11-18T01:02:16;98880.56;;;6.98;57.63
49949;BME280;35840;45.982;8.890;2023-11-18T01:04:45;98869.53;;;6.50;58.44
49949;BME280;35840;45.982;8.890;2023-11-18T01:07:12;98879.00;;;6.70;58.60
49949;BME280;35840;45.982;8.890;2023-11-18T01:09:39;98882.38;;;6.72;58.75
49949;BME280;35840;45.982;8.890;2023-11-18T01:12:07;98886.16;;;6.62;58.23
49949;BME280;35840;45.982;8.890;2023-11-18T01:14:38;98890.22;;;6.43;57.37
49949;BME280;35840;45.982;8.890;2023-11-18T01:17:06;98896.25;;;6.65;58.18
49949;BME280;35840;45.982;8.890;2023-11-18T01:19:33;98886.06;;;6.15;59.58
49949;BME280;35840;45.982;8.890;2023-11-18T01:22:02;98905.56;;;6.43;59.13
49949;BME280;35840;45.982;8.890;2023-11-18T01:24:33;98906.91;;;6.02;59.79
49949;BME280;35840;45.982;8.890;2023-11-18T01:27:00;98924.00;;;6.26;60.27
49949;BME280;35840;45.982;8.890;2023-11-18T01:29:27;98929.16;;;6.24;58.47
49949;BME280;35840;45.982;8.890;2023-11-18T01:31:53;98923.28;;;6.47;56.87
49949;BME280;35840;45.982;8.890;2023-11-18T01:34:22;98920.94;;;6.65;56.00
49949;BME280;35840;45.982;8.890;2023-11-18T01:36:49;98918.69;;;6.81;55.55
49949;BME280;35840;45.982;8.890;2023-11-18T01:39:17;98923.19;;;6.98;55.05
49949;BME280;35840;45.982;8.890;2023-11-18T01:41:45;98924.69;;;7.03;54.26
49949;BME280;35840;45.982;8.890;2023-11-18T01:44:12;98920.03;;;6.91;55.24
49949;BME280;35840;45.982;8.890;2023-11-18T01:46:42;98923.59;;;6.87;55.69
49949;BME280;35840;45.982;8.890;2023-11-18T01:49:13;98931.34;;;6.60;58.19
49949;BME280;35840;45.982;8.890;2023-11-18T01:51:42;98928.59;;;6.16;58.22
49949;BME280;35840;45.982;8.890;2023-11-18T01:54:12;98929.31;;;5.93;59.18
49949;BME280;35840;45.982;8.890;2023-11-18T01:56:47;98934.00;;;5.78;60.28
49949;BME280;35840;45.982;8.890;2023-11-18T01:59:15;98945.16;;;5.76;60.56
49949;BME280;35840;45.982;8.890;2023-11-18T02:01:52;98936.78;;;5.99;59.53
49949;BME280;35840;45.982;8.890;2023-11-18T02:04:20;98946.25;;;6.22;59.10
49949;BME280;35840;45.982;8.890;2023-11-18T02:06:49;98950.56;;;6.20;59.26
49949;BME280;35840;45.982;8.890;2023-11-18T02:09:17;98952.56;;;5.83;61.00
49949;BME280;35840;45.982;8.890;2023-11-18T02:14:31;98945.63;;;5.60;58.68
49949;BME280;35840;45.982;8.890;2023-11-18T02:17:02;98955.44;;;5.73;60.81
49949;BME280;35840;45.982;8.890;2023-11-18T02:19:30;98960.94;;;5.60;60.90
49949;BME280;35840;45.982;8.890;2023-11-18T02:21:58;98962.91;;;5.79;60.66
49949;BME280;35840;45.982;8.890;2023-11-18T02:24:31;98966.94;;;5.86;61.29
49949;BME280;35840;45.982;8.890;2023-11-18T02:27:00;98966.56;;;5.13;63.62
49949;BME280;35840;45.982;8.890;2023-11-18T02:29:34;98971.75;;;5.40;62.91
49949;BME280;35840;45.982;8.890;2023-11-18T02:32:15;98971.69;;;5.70;62.07
49949;BME280;35840;45.982;8.890;2023-11-18T02:35:27;98964.25;;;5.34;62.49
49949;BME280;35840;45.982;8.890;2023-11-18T02:37:55;98965.13;;;5.61;62.09
49949;BME280;35840;45.982;8.890;2023-11-18T02:40:27;98971.50;;;5.48;62.41
49949;BME280;35840;45.982;8.890;2023-11-18T02:42:59;98958.84;;;5.45;62.73
49949;BME280;35840;45.982;8.890;2023-11-18T02:45:27;98957.59;;;5.58;62.55
49949;BME280;35840;45.982;8.890;2023-11-18T02:47:54;98957.22;;;5.71;62.29
49949;BME280;35840;45.982;8.890;2023-11-18T02:50:24;98944.59;;;4.78;64.79
49949;BME280;35840;45.982;8.890;2023-11-18T02:52:51;98934.38;;;4.79;65.10
49949;BME280;35840;45.982;8.890;2023-11-18T02:55:19;98929.06;;;4.87;65.22
49949;BME280;35840;45.982;8.890;2023-11-18T02:57:48;98926.78;;;5.08;64.13
49949;BME280;35840;45.982;8.890;2023-11-18T03:00:16;98934.50;;;5.34;63.13
49949;BME280;35840;45.982;8.890;2023-11-18T03:02:50;98933.38;;;5.15;64.30
49949;BME280;35840;45.982;8.890;2023-11-18T03:05:19;98925.66;;;5.46;63.12
49949;BME280;35840;45.982;8.890;2023-11-18T03:07:49;98912.28;;;5.38;62.43
49949;BME280;35840;45.982;8.890;2023-11-18T03:10:21;98915.44;;;5.18;62.03
49949;BME280;35840;45.982;8.890;2023-11-18T03:15:15;98926.78;;;5.08;61.46
49949;BME280;35840;45.982;8.890;2023-11-18T03:17:46;98909.63;;;5.13;61.26
49949;BME280;35840;45.982;8.890;2023-11-18T03:20:19;98920.22;;;5.29;59.54
49949;BME280;35840;45.982;8.890;2023-11-18T03:22:46;98918.72;;;5.50;59.59
49949;BME280;35840;45.982;8.890;2023-11-18T03:25:14;98925.03;;;5.38;60.48
49949;BME280;35840;45.982;8.890;2023-11-18T03:27:41;98926.75;;;5.38;59.83
49949;BME280;35840;45.982;8.890;2023-11-18T03:30:09;98917.44;;;5.37;60.03
49949;BME280;35840;45.982;8.890;2023-11-18T03:32:37;98925.53;;;5.49;60.28
49949;BME280;35840;45.982;8.890;2023-11-18T03:35:06;98921.94;;;5.57;60.95
49949;BME280;35840;45.982;8.890;2023-11-18T03:37:40;98933.34;;;5.45;60.58
49949;BME280;35840;45.982;8.890;2023-11-18T03:40:13;98939.91;;;4.94;61.83
49949;BME280;35840;45.982;8.890;2023-11-18T03:42:43;98943.25;;;5.26;59.81
49949;BME280;35840;45.982;8.890;2023-11-18T03:45:13;98937.38;;;5.52;60.31
49949;BME280;35840;45.982;8.890;2023-11-18T03:47:42;98940.53;;;5.60;61.28
49949;BME280;35840;45.982;8.890;2023-11-18T03:50:09;98946.69;;;5.53;62.97
49949;BME280;35840;45.982;8.890;2023-11-18T03:52:37;98946.25;;;5.67;63.24
49949;BME280;35840;45.982;8.890;2023-11-18T03:55:05;98947.72;;;5.76;63.25
49949;BME280;35840;45.982;8.890;2023-11-18T03:57:32;98944.47;;;5.42;65.25
49949;BME280;35840;45.982;8.890;2023-11-18T03:59:59;98943.69;;;5.40;64.24
49949;BME280;35840;45.982;8.890;2023-11-18T04:02:26;98949.41;;;5.18;64.24
49949;BME280;35840;45.982;8.890;2023-11-18T04:04:53;98950.41;;;5.13;64.71
49949;BME280;35840;45.982;8.890;2023-11-18T04:07:20;98958.16;;;5.10;64.14
49949;BME280;35840;45.982;8.890;2023-11-18T04:09:48;98959.59;;;5.18;64.04
49949;BME280;35840;45.982;8.890;2023-11-18T04:12:15;98969.69;;;5.23;63.52
49949;BME280;35840;45.982;8.890;2023-11-18T04:14:42;98964.47;;;4.96;64.80
49949;BME280;35840;45.982;8.890;2023-11-18T04:17:09;98967.22;;;4.89;65.09
49949;BME280;35840;45.982;8.890;2023-11-18T04:19:36;98970.00;;;4.81;65.77
49949;BME280;35840;45.982;8.890;2023-11-18T04:22:04;98963.13;;;4.83;66.01
49949;BME280;35840;45.982;8.890;2023-11-18T04:24:31;98961.69;;;4.41;67.33
49949;BME280;35840;45.982;8.890;2023-11-18T04:26:58;98951.94;;;4.57;66.59
49949;BME280;35840;45.982;8.890;2023-11-18T04:29:24;98948.47;;;4.60;66.52
49949;BME280;35840;45.982;8.890;2023-11-18T04:31:53;98952.06;;;4.84;65.32
49949;BME280;35840;45.982;8.890;2023-11-18T04:34:20;98936.66;;;4.57;65.56
49949;BME280;35840;45.982;8.890;2023-11-18T04:36:47;98969.03;;;4.85;65.48
49949;BME280;35840;45.982;8.890;2023-11-18T04:39:13;98966.34;;;4.58;64.84
49949;BME280;35840;45.982;8.890;2023-11-18T04:41:42;98964.34;;;4.70;64.58
49949;BME280;35840;45.982;8.890;2023-11-18T04:44:09;98954.31;;;4.63;64.91
49949;BME280;35840;45.982;8.890;2023-11-18T04:46:36;98960.56;;;4.52;64.91
49949;BME280;35840;45.982;8.890;2023-11-18T04:49:03;98962.38;;;4.46;65.46
49949;BME280;35840;45.982;8.890;2023-11-18T04:51:32;98967.47;;;4.46;66.19
49949;BME280;35840;45.982;8.890;2023-11-18T04:53:59;98952.50;;;4.36;65.85
49949;BME280;35840;45.982;8.890;2023-11-18T04:56:26;98953.69;;;4.55;65.09
49949;BME280;35840;45.982;8.890;2023-11-18T04:58:53;98959.91;;;4.78;64.28
49949;BME280;35840;45.982;8.890;2023-11-18T05:01:20;98965.00;;;4.78;63.02
49949;BME280;35840;45.982;8.890;2023-11-18T05:03:47;98943.25;;;4.64;62.27
49949;BME280;35840;45.982;8.890;2023-11-18T05:06:14;98938.66;;;4.46;62.12
49949;BME280;35840;45.982;8.890;2023-11-18T05:08:41;98970.44;;;4.64;63.72
49949;BME280;35840;45.982;8.890;2023-11-18T05:11:08;98972.22;;;4.60;64.25
49949;BME280;35840;45.982;8.890;2023-11-18T05:13:35;98965.66;;;4.52;63.96
49949;BME280;35840;45.982;8.890;2023-11-18T05:16:02;98956.06;;;4.61;64.69
49949;BME280;35840;45.982;8.890;2023-11-18T05:18:30;98954.84;;;4.75;64.92
49949;BME280;35840;45.982;8.890;2023-11-18T05:21:03;98965.25;;;4.98;65.85
49949;BME280;35840;45.982;8.890;2023-11-18T05:23:35;98938.00;;;4.71;67.11
49949;BME280;35840;45.982;8.890;2023-11-18T05:26:02;98953.03;;;4.80;67.19
49949;BME280;35840;45.982;8.890;2023-11-18T05:28:33;98946.16;;;4.83;66.59
49949;BME280;35840;45.982;8.890;2023-11-18T05:31:00;98945.78;;;4.96;66.41
49949;BME280;35840;45.982;8.890;2023-11-18T05:33:31;98961.72;;;4.73;66.97
49949;BME280;35840;45.982;8.890;2023-11-18T05:36:01;98957.78;;;4.92;66.49
49949;BME280;35840;45.982;8.890;2023-11-18T05:38:28;98969.56;;;4.96;65.14
49949;BME280;35840;45.982;8.890;2023-11-18T05:40:58;98956.03;;;4.94;64.90
49949;BME280;35840;45.982;8.890;2023-11-18T05:43:29;98949.00;;;5.03;64.48
49949;BME280;35840;45.982;8.890;2023-11-18T05:46:03;98961.63;;;5.07;63.57
49949;BME280;35840;45.982;8.890;2023-11-18T05:48:49;98948.47;;;5.21;63.10
49949;BME280;35840;45.982;8.890;2023-11-18T05:51:24;98947.31;;;5.31;62.09
49949;BME280;35840;45.982;8.890;2023-11-18T05:53:52;98948.84;;;5.37;62.33
49949;BME280;35840;45.982;8.890;2023-11-18T05:56:19;98946.50;;;5.31;62.96
49949;BME280;35840;45.982;8.890;2023-11-18T05:58:50;98959.91;;;5.38;63.30
49949;BME280;35840;45.982;8.890;2023-11-18T06:01:17;98951.50;;;5.04;64.50
49949;BME280;35840;45.982;8.890;2023-11-18T06:03:44;98958.78;;;5.18;63.96
49949;BME280;35840;45.982;8.890;2023-11-18T06:06:14;98957.28;;;5.11;63.62
49949;BME280;35840;45.982;8.890;2023-11-18T06:08:48;98962.56;;;5.34;63.50
49949;BME280;35840;45.982;8.890;2023-11-18T06:11:15;98965.22;;;5.00;65.16
49949;BME280;35840;45.982;8.890;2023-11-18T06:13:50;98954.75;;;4.79;66.64
49949;BME280;35840;45.982;8.890;2023-11-18T06:16:21;98971.91;;;5.04;65.84
49949;BME280;35840;45.982;8.890;2023-11-18T06:18:50;98982.31;;;4.96;64.83
49949;BME280;35840;45.982;8.890;2023-11-18T06:21:19;98961.16;;;4.93;65.03
49949;BME280;35840;45.982;8.890;2023-11-18T06:23:47;98962.47;;;5.08;64.35
49949;BME280;35840;45.982;8.890;2023-11-18T06:26:15;98964.44;;;4.98;64.17
49949;BME280;35840;45.982;8.890;2023-11-18T06:28:43;98966.91;;;5.01;63.92
49949;BME280;35840;45.982;8.890;2023-11-18T06:31:11;98971.94;;;5.03;63.69
49949;BME280;35840;45.982;8.890;2023-11-18T06:33:42;98967.22;;;4.89;64.14
49949;BME280;35840;45.982;8.890;2023-11-18T06:38:40;98970.03;;;4.79;64.47
49949;BME280;35840;45.982;8.890;2023-11-18T06:41:07;98961.91;;;4.67;64.72
49949;BME280;35840;45.982;8.890;2023-11-18T06:43:40;98991.41;;;4.74;64.85
49949;BME280;35840;45.982;8.890;2023-11-18T06:48:55;99003.25;;;4.76;64.02
49949;BME280;35840;45.982;8.890;2023-11-18T06:51:22;99006.63;;;4.77;63.85
49949;BME280;35840;45.982;8.890;2023-11-18T06:53:51;99019.53;;;4.69;63.68
49949;BME280;35840;45.982;8.890;2023-11-18T06:56:18;99027.81;;;4.77;63.32
49949;BME280;35840;45.982;8.890;2023-11-18T06:58:46;99022.81;;;4.74;63.38
49949;BME280;35840;45.982;8.890;2023-11-18T07:01:13;99024.75;;;4.64;64.06
49949;BME280;35840;45.982;8.890;2023-11-18T07:03:42;99035.72;;;4.68;64.77
49949;BME280;35840;45.982;8.890;2023-11-18T07:06:09;99025.53;;;4.68;65.25
49949;BME280;35840;45.982;8.890;2023-11-18T07:08:36;99035.06;;;4.93;64.58
49949;BME280;35840;45.982;8.890;2023-11-18T07:11:04;99032.00;;;4.80;62.62
49949;BME280;35840;45.982;8.890;2023-11-18T07:13:32;99020.50;;;4.65;61.22
49949;BME280;35840;45.982;8.890;2023-11-18T07:16:02;99043.44;;;4.98;61.98
49949;BME280;35840;45.982;8.890;2023-11-18T07:18:30;99049.31;;;5.00;60.53
49949;BME280;35840;45.982;8.890;2023-11-18T07:21:01;99027.09;;;5.05;60.90
49949;BME280;35840;45.982;8.890;2023-11-18T07:23:31;99035.00;;;4.94;61.38
49949;BME280;35840;45.982;8.890;2023-11-18T07:25:59;99045.84;;;5.03;59.53
49949;BME280;35840;45.982;8.890;2023-11-18T07:28:26;99043.94;;;5.11;59.07
49949;BME280;35840;45.982;8.890;2023-11-18T07:30:53;99040.28;;;5.20;58.88
49949;BME280;35840;45.982;8.890;2023-11-18T07:33:20;99043.66;;;5.20;59.47
49949;BME280;35840;45.982;8.890;2023-11-18T07:35:48;99043.25;;;5.04;59.84
49949;BME280;35840;45.982;8.890;2023-11-18T07:38:15;99049.19;;;5.05;59.26
49949;BME280;35840;45.982;8.890;2023-11-18T07:40:42;99038.66;;;5.17;58.17
49949;BME280;35840;45.982;8.890;2023-11-18T07:43:12;99043.41;;;5.29;58.60
49949;BME280;35840;45.982;8.890;2023-11-18T07:45:40;99037.13;;;5.41;59.32
49949;BME280;35840;45.982;8.890;2023-11-18T07:48:08;99045.25;;;5.54;59.48
49949;BME280;35840;45.982;8.890;2023-11-18T07:50:44;99052.75;;;5.60;59.79
49949;BME280;35840;45.982;8.890;2023-11-18T07:53:11;99049.16;;;5.67;60.15
49949;BME280;35840;45.982;8.890;2023-11-18T07:55:38;99039.31;;;5.83;57.76
49949;BME280;35840;45.982;8.890;2023-11-18T07:58:09;99041.38;;;6.00;57.03
49949;BME280;35840;45.982;8.890;2023-11-18T08:00:40;99041.56;;;6.23;54.41
49949;BME280;35840;45.982;8.890;2023-11-18T08:03:07;99040.41;;;6.58;53.96
49949;BME280;35840;45.982;8.890;2023-11-18T08:05:39;99034.00;;;6.71;56.03
49949;BME280;35840;45.982;8.890;2023-11-18T08:08:07;99037.34;;;6.74;53.96
49949;BME280;35840;45.982;8.890;2023-11-18T08:10:34;99044.53;;;6.87;55.13
49949;BME280;35840;45.982;8.890;2023-11-18T08:13:08;99035.97;;;6.88;53.71
49949;BME280;35840;45.982;8.890;2023-11-18T08:15:38;99045.72;;;7.02;54.08
49949;BME280;35840;45.982;8.890;2023-11-18T08:18:07;99036.06;;;7.11;52.59
49949;BME280;35840;45.982;8.890;2023-11-18T08:20:34;99046.88;;;7.19;52.83
49949;BME280;35840;45.982;8.890;2023-11-18T08:23:01;99048.44;;;7.23;51.49
49949;BME280;35840;45.982;8.890;2023-11-18T08:25:28;99042.75;;;7.15;52.64
49949;BME280;35840;45.982;8.890;2023-11-18T08:27:55;99047.47;;;7.26;52.50
49949;BME280;35840;45.982;8.890;2023-11-18T08:30:21;99065.81;;;7.37;52.33
49949;BME280;35840;45.982;8.890;2023-11-18T08:32:50;99055.53;;;7.38;52.44
49949;BME280;35840;45.982;8.890;2023-11-18T08:35:17;99053.38;;;7.51;51.88
49949;BME280;35840;45.982;8.890;2023-11-18T08:37:44;99046.16;;;7.63;51.73
49949;BME280;35840;45.982;8.890;2023-11-18T08:40:14;99053.41;;;7.73;49.51
49949;BME280;35840;45.982;8.890;2023-11-18T08:42:49;99053.41;;;7.73;49.34
49949;BME280;35840;45.982;8.890;2023-11-18T08:45:22;99051.59;;;7.77;50.15
49949;BME280;35840;45.982;8.890;2023-11-18T08:47:57;99056.34;;;7.86;50.79
49949;BME280;35840;45.982;8.890;2023-11-18T08:50:25;99051.81;;;7.93;50.26
49949;BME280;35840;45.982;8.890;2023-11-18T08:52:53;99047.31;;;8.00;48.81
49949;BME280;35840;45.982;8.890;2023-11-18T08:55:29;99051.22;;;8.08;50.98
49949;BME280;35840;45.982;8.890;2023-11-18T08:58:08;99055.47;;;8.09;50.06
49949;BME280;35840;45.982;8.890;2023-11-18T09:00:57;99050.03;;;8.17;48.95
49949;BME280;35840;45.982;8.890;2023-11-18T09:03:42;99042.41;;;8.16;47.74
49949;BME280;35840;45.982;8.890;2023-11-18T09:06:19;99060.38;;;8.36;48.33
49949;BME280;35840;45.982;8.890;2023-11-18T09:08:53;99063.53;;;8.43;47.83
49949;BME280;35840;45.982;8.890;2023-11-18T09:11:23;99057.03;;;8.34;48.04
49949;BME280;35840;45.982;8.890;2023-11-18T09:13:51;99059.41;;;8.39;47.61
49949;BME280;35840;45.982;8.890;2023-11-18T09:16:21;99057.59;;;8.42;48.38
49949;BME280;35840;45.982;8.890;2023-11-18T09:18:56;99064.28;;;8.47;48.80
49949;BME280;35840;45.982;8.890;2023-11-18T09:21:26;99066.59;;;8.53;49.63
49949;BME280;35840;45.982;8.890;2023-11-18T09:23:56;99063.88;;;8.56;48.18
49949;BME280;35840;45.982;8.890;2023-11-18T09:26:25;99062.88;;;8.60;47.03
49949;BME280;35840;45.982;8.890;2023-11-18T09:28:56;99064.41;;;8.64;47.35
49949;BME280;35840;45.982;8.890;2023-11-18T09:31:24;99067.63;;;8.69;46.72
49949;BME280;35840;45.982;8.890;2023-11-18T09:33:51;99064.06;;;8.73;47.71
49949;BME280;35840;45.982;8.890;2023-11-18T09:36:24;99048.84;;;8.69;47.66
49949;BME280;35840;45.982;8.890;2023-11-18T09:38:51;99063.97;;;8.75;48.64
49949;BME280;35840;45.982;8.890;2023-11-18T09:41:22;99067.75;;;8.87;47.87
49949;BME280;35840;45.982;8.890;2023-11-18T09:43:55;99066.06;;;8.86;47.08
49949;BME280;35840;45.982;8.890;2023-11-18T09:46:25;99058.16;;;8.92;47.55
49949;BME280;35840;45.982;8.890;2023-11-18T09:49:07;99061.22;;;9.00;47.75
49949;BME280;35840;45.982;8.890;2023-11-18T09:51:43;99055.75;;;9.08;48.94
49949;BME280;35840;45.982;8.890;2023-11-18T09:54:44;99052.59;;;9.22;46.11
49949;BME280;35840;45.982;8.890;2023-11-18T09:57:21;99043.38;;;9.18;46.46
49949;BME280;35840;45.982;8.890;2023-11-18T10:02:54;99033.47;;;9.29;44.16
49949;BME280;35840;45.982;8.890;2023-11-18T10:05:24;99012.28;;;9.24;46.11
49949;BME280;35840;45.982;8.890;2023-11-18T10:07:55;99034.25;;;9.50;44.96
49949;BME280;35840;45.982;8.890;2023-11-18T10:10:25;99035.63;;;9.57;41.83
49949;BME280;35840;45.982;8.890;2023-11-18T10:12:57;99027.06;;;9.57;43.08
49949;BME280;35840;45.982;8.890;2023-11-18T10:15:25;99025.56;;;9.53;44.04
49949;BME280;35840;45.982;8.890;2023-11-18T10:17:53;99025.06;;;9.63;45.67
49949;BME280;35840;45.982;8.890;2023-11-18T10:23:09;99024.72;;;9.71;43.19
49949;BME280;35840;45.982;8.890;2023-11-18T10:25:49;99024.38;;;9.79;42.97
49949;BME280;35840;45.982;8.890;2023-11-18T10:28:27;99023.88;;;9.90;44.39
49949;BME280;35840;45.982;8.890;2023-11-18T10:31:05;99030.31;;;9.98;43.43
49949;BME280;35840;45.982;8.890;2023-11-18T10:33:35;99030.97;;;10.02;41.63
49949;BME280;35840;45.982;8.890;2023-11-18T10:36:03;99033.34;;;10.07;42.91
49949;BME280;35840;45.982;8.890;2023-11-18T10:38:31;99032.31;;;10.11;42.94
49949;BME280;35840;45.982;8.890;2023-11-18T10:40:59;99035.53;;;10.14;44.36
49949;BME280;35840;45.982;8.890;2023-11-18T10:43:29;99040.09;;;10.09;43.00
49949;BME280;35840;45.982;8.890;2023-11-18T10:48:50;99040.25;;;10.24;43.86
49949;BME280;35840;45.982;8.890;2023-11-18T10:51:17;99029.97;;;10.24;44.32
49949;BME280;35840;45.982;8.890;2023-11-18T10:53:52;99033.28;;;10.26;41.19
49949;BME280;35840;45.982;8.890;2023-11-18T10:56:27;99031.41;;;10.29;43.17
49949;BME280;35840;45.982;8.890;2023-11-18T10:59:08;99031.34;;;10.31;43.70
49949;BME280;35840;45.982;8.890;2023-11-18T11:01:37;99034.66;;;10.33;43.22
49949;BME280;35840;45.982;8.890;2023-11-18T11:04:11;99029.25;;;10.39;40.54
49949;BME280;35840;45.982;8.890;2023-11-18T11:06:42;99025.63;;;10.43;41.57
49949;BME280;35840;45.982;8.890;2023-11-18T11:09:09;99005.06;;;10.43;41.71
49949;BME280;35840;45.982;8.890;2023-11-18T11:12:11;99007.25;;;10.51;41.62
49949;BME280;35840;45.982;8.890;2023-11-18T11:14:50;98994.09;;;10.57;41.27
49949;BME280;35840;45.982;8.890;2023-11-18T11:17:21;98983.97;;;10.54;40.22
49949;BME280;35840;45.982;8.890;2023-11-18T11:20:04;98991.13;;;10.65;41.40
49949;BME280;35840;45.982;8.890;2023-11-18T11:26:07;98998.22;;;10.77;41.61
49949;BME280;35840;45.982;8.890;2023-11-18T11:28:43;98995.91;;;10.89;40.94
49949;BME280;35840;45.982;8.890;2023-11-18T11:31:31;98990.44;;;10.79;41.86
49949;BME280;35840;45.982;8.890;2023-11-18T11:34:02;98985.97;;;10.82;40.15
49949;BME280;35840;45.982;8.890;2023-11-18T11:36:46;98982.66;;;10.80;41.31
49949;BME280;35840;45.982;8.890;2023-11-18T11:39:16;98976.09;;;10.91;40.92
49949;BME280;35840;45.982;8.890;2023-11-18T11:41:52;98977.53;;;10.96;41.29
49949;BME280;35840;45.982;8.890;2023-11-18T11:44:24;98964.59;;;10.98;39.46
49949;BME280;35840;45.982;8.890;2023-11-18T11:46:59;98959.44;;;10.98;40.85
49949;BME280;35840;45.982;8.890;2023-11-18T11:49:43;98955.72;;;11.03;38.24
49949;BME280;35840;45.982;8.890;2023-11-18T11:52:33;98958.97;;;11.07;37.07
49949;BME280;35840;45.982;8.890;2023-11-18T11:55:18;98960.44;;;11.11;37.71
49949;BME280;35840;45.982;8.890;2023-11-18T11:57:53;98960.22;;;11.16;37.87
49949;BME280;35840;45.982;8.890;2023-11-18T12:00:20;98955.00;;;11.17;37.52
49949;BME280;35840;45.982;8.890;2023-11-18T12:02:53;98956.31;;;11.25;37.83
49949;BME280;35840;45.982;8.890;2023-11-18T12:05:24;98957.13;;;11.25;37.50
49949;BME280;35840;45.982;8.890;2023-11-18T12:07:55;98946.28;;;11.36;38.17
49949;BME280;35840;45.982;8.890;2023-11-18T12:10:32;98958.63;;;11.45;36.19
49949;BME280;35840;45.982;8.890;2023-11-18T12:13:07;98954.16;;;11.49;35.81
49949;BME280;35840;45.982;8.890;2023-11-18T12:15:52;98949.69;;;11.52;37.31
49949;BME280;35840;45.982;8.890;2023-11-18T12:18:31;98945.69;;;11.63;35.33
49949;BME280;35840;45.982;8.890;2023-11-18T12:21:00;98937.88;;;11.64;35.13
49949;BME280;35840;45.982;8.890;2023-11-18T12:23:31;98931.13;;;11.62;36.98
49949;BME280;35840;45.982;8.890;2023-11-18T12:26:01;98937.50;;;11.70;36.03
49949;BME280;35840;45.982;8.890;2023-11-18T12:28:31;98930.09;;;11.80;37.73
49949;BME280;35840;45.982;8.890;2023-11-18T12:31:03;98926.81;;;11.78;37.18
49949;BME280;35840;45.982;8.890;2023-11-18T12:42:05;98924.22;;;11.94;37.44
49949;BME280;35840;45.982;8.890;2023-11-18T12:48:05;98928.00;;;12.03;38.58
49949;BME280;35840;45.982;8.890;2023-11-18T12:50:41;98919.19;;;12.07;36.65
49949;BME280;35840;45.982;8.890;2023-11-18T12:53:07;98921.94;;;12.04;36.63
49949;BME280;35840;45.982;8.890;2023-11-18T12:55:35;98910.34;;;12.11;35.93
49949;BME280;35840;45.982;8.890;2023-11-18T12:58:02;98912.34;;;12.06;34.48
49949;BME280;35840;45.982;8.890;2023-11-18T13:00:32;98908.88;;;12.07;36.07
49949;BME280;35840;45.982;8.890;2023-11-18T13:03:00;98919.84;;;12.11;35.22
49949;BME280;35840;45.982;8.890;2023-11-18T13:05:28;98919.00;;;12.10;36.40
49949;BME280;35840;45.982;8.890;2023-11-18T13:07:56;98916.16;;;12.15;34.76
49949;BME280;35840;45.982;8.890;2023-11-18T13:10:28;98917.94;;;12.29;35.73
49949;BME280;35840;45.982;8.890;2023-11-18T13:12:55;98922.34;;;12.27;37.07
49949;BME280;35840;45.982;8.890;2023-11-18T13:15:25;98909.75;;;12.36;34.21
49949;BME280;35840;45.982;8.890;2023-11-18T13:20:25;98910.13;;;12.45;34.98
49949;BME280;35840;45.982;8.890;2023-11-18T13:22:52;98905.03;;;12.43;34.02
49949;BME280;35840;45.982;8.890;2023-11-18T13:25:22;98900.06;;;12.40;33.82
49949;BME280;35840;45.982;8.890;2023-11-18T13:27:50;98896.78;;;12.38;34.92
49949;BME280;35840;45.982;8.890;2023-11-18T13:30:18;98885.06;;;12.32;36.27
49949;BME280;35840;45.982;8.890;2023-11-18T13:32:47;98880.72;;;12.33;36.43
49949;BME280;35840;45.982;8.890;2023-11-18T13:35:16;98880.63;;;12.34;36.23
49949;BME280;35840;45.982;8.890;2023-11-18T13:37:47;98883.41;;;12.31;34.44
49949;BME280;35840;45.982;8.890;2023-11-18T13:40:15;98881.00;;;12.28;35.95
49949;BME280;35840;45.982;8.890;2023-11-18T13:42:45;98884.06;;;12.35;35.71
49949;BME280;35840;45.982;8.890;2023-11-18T13:45:14;98880.00;;;12.31;36.93
49949;BME280;35840;45.982;8.890;2023-11-18T13:47:59;98878.16;;;12.33;36.45
49949;BME280;35840;45.982;8.890;2023-11-18T13:50:27;98881.59;;;12.33;34.71
49949;BME280;35840;45.982;8.890;2023-11-18T13:52:56;98878.81;;;12.36;36.62
49949;BME280;35840;45.982;8.890;2023-11-18T13:55:24;98889.84;;;12.38;35.87
49949;BME280;35840;45.982;8.890;2023-11-18T13:57:55;98871.91;;;12.22;35.24
49949;BME280;35840;45.982;8.890;2023-11-18T14:00:25;98878.34;;;12.15;35.10